Time;durP1;ratioP1;P1;durP2;ratioP2;P2;SDS_P1;SDS_P2;PMS_P1;PMS_P2;Temp;Humidity;BMP_temperature;BMP_pressure;BME280_temperature;BME280_humidity;BME280_pressure;Samples;Min_cycle;Max_cycle;Signal;HPM_P1;HPM_P2
2022/01/27 00:01:34;;;;;;;78.73;24.20;;;0.00;44.50;;;;;;5041048;28;20553;-69
2022/01/27 00:04:08;;;;;;;74.40;22.30;;;0.00;44.60;;;;;;5038532;28;20466;-67
2022/01/27 00:06:36;;;;;;;81.03;25.40;;;0.00;44.60;;;;;;5039030;28;20449;-67
2022/01/27 00:12:27;;;;;;;79.20;26.47;;;0.00;44.70;;;;;;5042101;28;20417;-68
2022/01/27 00:15:07;;;;;;;76.40;23.97;;;0.00;44.60;;;;;;5048160;28;20544;-68
2022/01/27 00:17:39;;;;;;;89.67;25.43;;;0.00;44.40;;;;;;5031279;28;20459;-68
2022/01/27 00:20:07;;;;;;;81.40;25.77;;;0.00;44.40;;;;;;5050770;28;20461;-68
2022/01/27 00:22:34;;;;;;;79.27;26.90;;;0.00;44.70;;;;;;5044626;28;20970;-68
2022/01/27 00:25:02;;;;;;;80.63;26.30;;;0.00;44.70;;;;;;5047925;28;20477;-68
2022/01/27 00:27:30;;;;;;;83.60;27.37;;;0.00;44.70;;;;;;5039850;28;20501;-67
2022/01/27 00:30:00;;;;;;;82.07;27.03;;;0.00;44.70;;;;;;5050005;28;20458;-68
2022/01/27 00:32:26;;;;;;;88.80;29.13;;;0.00;44.90;;;;;;5030904;28;20562;-68
2022/01/27 00:34:53;;;;;;;77.30;24.13;;;0.00;44.90;;;;;;5037810;28;20489;-68
2022/01/27 00:37:20;;;;;;;79.47;25.87;;;0.00;44.90;;;;;;5046175;28;20517;-67
2022/01/27 00:39:47;;;;;;;89.77;27.37;;;0.00;44.90;;;;;;5037035;28;20469;-70
2022/01/27 00:42:14;;;;;;;82.83;24.57;;;0.00;45.10;;;;;;5047693;28;20451;-67
2022/01/27 00:44:42;;;;;;;84.23;28.90;;;0.00;45.10;;;;;;5049042;28;20478;-69
2022/01/27 00:47:09;;;;;;;87.47;27.50;;;-0.10;45.00;;;;;;5048625;28;20488;-66
2022/01/27 00:49:36;;;;;;;83.77;26.27;;;-0.10;45.00;;;;;;5039207;28;20456;-67
2022/01/27 00:52:07;;;;;;;85.30;27.50;;;-0.10;44.90;;;;;;5037026;28;21005;-67
2022/01/27 00:54:33;;;;;;;80.07;26.80;;;-0.10;44.80;;;;;;5046914;28;20516;-67
2022/01/27 00:57:07;;;;;;;79.97;26.90;;;-0.10;44.70;;;;;;5036184;28;20464;-67
2022/01/27 00:59:41;;;;;;;81.80;26.03;;;-0.10;44.70;;;;;;5032216;28;20455;-68
2022/01/27 01:02:17;;;;;;;100.23;29.20;;;-0.10;44.70;;;;;;5043837;28;20577;-68
2022/01/27 01:04:48;;;;;;;103.10;26.93;;;-0.10;44.50;;;;;;5048429;28;20505;-68
2022/01/27 01:07:16;;;;;;;88.53;27.40;;;-0.20;44.40;;;;;;5041592;28;20461;-68
2022/01/27 01:15:19;;;;;;;94.00;24.97;;;-0.20;45.20;;;;;;5043402;28;20474;-67
2022/01/27 01:18:01;;;;;;;84.73;26.27;;;-0.30;45.30;;;;;;5032803;28;20844;-69
2022/01/27 01:20:38;;;;;;;88.77;23.17;;;-0.30;45.20;;;;;;5041489;28;20589;-68
2022/01/27 01:31:31;;;;;;;92.23;24.23;;;-0.50;46.10;;;;;;5033060;28;20484;-68
2022/01/27 01:34:14;;;;;;;77.03;23.60;;;-0.50;46.30;;;;;;5048385;28;21126;-67
2022/01/27 01:36:53;;;;;;;80.07;26.40;;;-0.50;46.50;;;;;;5034076;28;20463;-67
2022/01/27 01:39:21;;;;;;;84.23;26.30;;;-0.50;46.60;;;;;;5048575;28;20545;-68
2022/01/27 01:41:48;;;;;;;94.03;27.57;;;-0.50;46.90;;;;;;5034736;28;20458;-66
2022/01/27 01:44:18;;;;;;;88.63;25.53;;;-0.50;47.00;;;;;;5031267;28;20477;-66
2022/01/27 01:46:46;;;;;;;88.10;28.90;;;-0.50;47.00;;;;;;5040566;28;20462;-67
2022/01/27 01:49:14;;;;;;;89.33;28.67;;;-0.40;47.10;;;;;;5035834;28;20510;-67
2022/01/27 01:51:44;;;;;;;85.10;26.70;;;-0.40;47.00;;;;;;5048863;28;20541;-68
2022/01/27 01:54:14;;;;;;;86.20;28.00;;;-0.40;47.00;;;;;;5043616;28;20494;-68
2022/01/27 01:56:43;;;;;;;96.40;27.63;;;-0.30;47.10;;;;;;5036351;28;20514;-68
2022/01/27 01:59:11;;;;;;;87.03;27.87;;;-0.30;47.80;;;;;;5036582;28;20454;-67
2022/01/27 02:01:39;;;;;;;77.23;25.23;;;-0.30;47.10;;;;;;5044795;28;20490;-67
2022/01/27 02:04:09;;;;;;;87.40;28.40;;;-0.20;47.00;;;;;;5043165;28;20478;-69
2022/01/27 02:06:44;;;;;;;84.07;25.57;;;-0.20;47.00;;;;;;5036140;28;20465;-66
2022/01/27 02:09:20;;;;;;;80.03;26.70;;;-0.10;47.10;;;;;;5035002;28;20511;-68
2022/01/27 02:20:07;;;;;;;81.30;25.90;;;0.10;46.60;;;;;;5043694;28;20450;-68
2022/01/27 02:22:38;;;;;;;77.93;26.13;;;0.10;46.40;;;;;;5028890;28;20550;-68
2022/01/27 02:25:06;;;;;;;84.07;27.03;;;0.10;46.30;;;;;;5047852;28;21520;-67
2022/01/27 02:27:36;;;;;;;74.37;24.87;;;0.20;46.20;;;;;;5036968;28;20474;-69
2022/01/27 02:30:05;;;;;;;77.97;26.37;;;0.20;46.20;;;;;;5038880;28;20458;-68
2022/01/27 02:32:33;;;;;;;74.73;24.13;;;0.20;46.00;;;;;;5037552;28;20450;-68
2022/01/27 02:35:01;;;;;;;79.40;25.50;;;0.20;46.00;;;;;;5029288;28;20509;-68
2022/01/27 02:37:29;;;;;;;76.30;26.30;;;0.30;46.10;;;;;;5046255;28;21072;-68
2022/01/27 02:39:57;;;;;;;81.50;27.37;;;0.30;46.10;;;;;;5038833;28;20454;-69
2022/01/27 02:42:30;;;;;;;79.13;28.20;;;0.30;46.20;;;;;;5037161;28;20487;-69
2022/01/27 02:45:07;;;;;;;88.33;29.67;;;0.30;46.20;;;;;;5040552;28;20474;-68
2022/01/27 02:47:34;;;;;;;82.27;26.20;;;0.30;46.30;;;;;;5028696;28;20467;-67
2022/01/27 02:50:02;;;;;;;77.80;27.07;;;0.40;46.00;;;;;;5040152;28;20494;-68
2022/01/27 02:52:31;;;;;;;79.97;26.70;;;0.40;45.90;;;;;;5036020;28;20466;-69
2022/01/27 02:54:58;;;;;;;80.70;25.83;;;0.40;45.90;;;;;;5028816;28;21018;-68
2022/01/27 02:57:25;;;;;;;77.87;27.47;;;0.40;46.50;;;;;;5044051;28;20458;-67
2022/01/27 02:59:53;;;;;;;75.40;25.60;;;0.40;45.80;;;;;;5039484;28;20457;-67
2022/01/27 03:02:23;;;;;;;74.77;25.87;;;0.40;45.70;;;;;;5042591;28;20474;-67
2022/01/27 03:04:51;;;;;;;79.57;25.10;;;0.50;45.60;;;;;;5042822;28;20558;-70
2022/01/27 03:07:18;;;;;;;77.73;28.07;;;0.40;45.30;;;;;;5041998;28;20912;-68
2022/01/27 03:09:47;;;;;;;81.23;27.47;;;0.40;45.20;;;;;;5036288;28;21005;-67
2022/01/27 03:12:16;;;;;;;80.43;28.07;;;0.40;45.10;;;;;;5034242;28;20516;-67
2022/01/27 03:14:43;;;;;;;79.50;28.37;;;0.40;45.10;;;;;;5037353;28;20509;-67
2022/01/27 03:17:12;;;;;;;75.63;24.90;;;0.50;45.10;;;;;;5029467;28;20459;-66
2022/01/27 03:19:39;;;;;;;83.00;27.00;;;0.50;45.00;;;;;;5036125;28;20458;-68
2022/01/27 03:22:07;;;;;;;81.30;29.10;;;0.50;44.90;;;;;;5028947;28;20455;-67
2022/01/27 03:24:35;;;;;;;72.43;25.13;;;0.60;44.70;;;;;;5029083;28;20503;-68
2022/01/27 03:27:06;;;;;;;80.03;26.57;;;0.50;44.50;;;;;;5034876;28;20991;-68
2022/01/27 03:29:33;;;;;;;86.03;27.63;;;0.50;44.40;;;;;;5035755;28;20563;-68
2022/01/27 03:31:59;;;;;;;78.93;25.67;;;0.50;44.20;;;;;;5042005;28;21028;-69
2022/01/27 03:34:26;;;;;;;75.70;25.37;;;0.50;44.00;;;;;;5039024;28;20483;-68
2022/01/27 03:36:53;;;;;;;73.83;24.80;;;0.40;43.80;;;;;;5045417;28;20458;-68
2022/01/27 03:39:22;;;;;;;77.57;25.33;;;0.40;43.80;;;;;;5035001;28;20459;-68
2022/01/27 03:41:51;;;;;;;80.53;26.60;;;0.40;43.80;;;;;;5035507;28;20458;-68
2022/01/27 03:44:20;;;;;;;75.03;25.57;;;0.40;43.90;;;;;;5042780;28;21002;-68
2022/01/27 03:46:47;;;;;;;79.73;26.87;;;0.40;43.80;;;;;;5031692;28;20458;-67
2022/01/27 03:49:14;;;;;;;79.37;25.67;;;0.40;43.80;;;;;;5047103;28;20465;-68
2022/01/27 03:51:41;;;;;;;87.00;27.97;;;0.40;43.60;;;;;;5043794;28;20460;-68
2022/01/27 03:54:08;;;;;;;81.00;26.90;;;0.40;43.60;;;;;;5040574;28;20492;-67
2022/01/27 03:56:34;;;;;;;82.40;28.00;;;0.40;43.50;;;;;;5042070;28;20456;-67
2022/01/27 03:59:01;;;;;;;78.37;26.30;;;0.30;43.60;;;;;;5044014;28;20458;-68
2022/01/27 04:01:30;;;;;;;76.83;25.70;;;0.30;43.50;;;;;;5036291;28;20480;-67
2022/01/27 04:03:59;;;;;;;79.50;27.73;;;0.30;43.50;;;;;;5033396;28;20481;-67
2022/01/27 04:06:33;;;;;;;87.37;27.27;;;0.20;43.30;;;;;;5047279;28;20462;-69
2022/01/27 04:09:00;;;;;;;77.93;28.20;;;0.20;43.80;;;;;;5041693;28;20958;-68
2022/01/27 04:11:27;;;;;;;79.63;27.80;;;0.20;43.30;;;;;;5044419;28;20829;-67
2022/01/27 04:13:54;;;;;;;83.10;27.20;;;0.10;43.30;;;;;;5037729;28;20485;-67
2022/01/27 04:16:21;;;;;;;77.20;25.90;;;0.00;43.30;;;;;;5035375;28;20851;-68
2022/01/27 04:18:49;;;;;;;73.47;24.67;;;0.00;43.50;;;;;;5044786;28;20464;-70
2022/01/27 04:21:17;;;;;;;87.57;27.47;;;0.00;43.60;;;;;;5041532;28;20455;-67
2022/01/27 04:23:44;;;;;;;85.50;27.13;;;-0.10;43.70;;;;;;5043626;28;20478;-67
2022/01/27 04:26:13;;;;;;;82.17;27.33;;;-0.10;43.70;;;;;;5043739;28;20461;-68
2022/01/27 04:28:41;;;;;;;75.07;25.33;;;-0.10;44.00;;;;;;5038555;28;21272;-67
2022/01/27 04:31:10;;;;;;;77.27;26.40;;;-0.20;44.10;;;;;;5031570;28;20562;-67
2022/01/27 04:33:38;;;;;;;81.23;25.07;;;-0.20;44.40;;;;;;5044769;28;20509;-68
2022/01/27 04:36:13;;;;;;;77.20;27.90;;;-0.20;44.50;;;;;;5049529;28;20481;-68
2022/01/27 04:38:46;;;;;;;88.90;28.13;;;-0.20;44.70;;;;;;5047381;28;20553;-69
2022/01/27 04:41:14;;;;;;;85.47;27.53;;;-0.20;44.70;;;;;;5035799;28;20454;-67
2022/01/27 04:43:47;;;;;;;73.00;25.23;;;-0.20;44.90;;;;;;5039273;28;20491;-68
2022/01/27 04:46:23;;;;;;;72.60;23.97;;;-0.20;44.90;;;;;;5038640;28;20490;-68
2022/01/27 04:48:53;;;;;;;79.27;25.67;;;-0.20;45.00;;;;;;5043126;28;21064;-67
2022/01/27 04:51:23;;;;;;;78.17;26.90;;;-0.30;45.10;;;;;;5040832;28;20466;-69
2022/01/27 04:53:55;;;;;;;79.50;27.63;;;-0.30;45.30;;;;;;5037899;28;20507;-68
2022/01/27 04:56:24;;;;;;;73.10;25.80;;;-0.30;45.10;;;;;;5038859;28;20536;-68
2022/01/27 04:58:55;;;;;;;78.33;26.67;;;-0.30;45.20;;;;;;5048715;28;21148;-68
2022/01/27 05:01:29;;;;;;;80.80;27.00;;;-0.20;45.20;;;;;;5050004;28;20474;-68
2022/01/27 05:04:01;;;;;;;77.30;26.50;;;-0.40;45.90;;;;;;5049941;28;20480;-68
2022/01/27 05:06:29;;;;;;;76.47;26.63;;;-0.40;45.30;;;;;;5044749;28;20483;-68
2022/01/27 05:08:56;;;;;;;73.83;26.70;;;-0.40;45.30;;;;;;5029960;28;20455;-68
2022/01/27 05:11:27;;;;;;;88.27;28.40;;;-0.40;45.30;;;;;;5030167;28;20458;-68
2022/01/27 05:13:57;;;;;;;71.10;24.80;;;-0.40;45.30;;;;;;5030163;28;20574;-68
2022/01/27 05:16:24;;;;;;;73.23;26.20;;;-0.40;45.30;;;;;;5047433;28;20502;-67
2022/01/27 05:18:51;;;;;;;80.07;25.40;;;-0.50;45.20;;;;;;5049127;28;20458;-68
2022/01/27 05:21:18;;;;;;;78.27;26.27;;;-0.50;45.00;;;;;;5049960;28;20462;-67
2022/01/27 05:23:46;;;;;;;69.70;23.40;;;-0.50;45.10;;;;;;5049522;28;20481;-69
2022/01/27 05:26:13;;;;;;;74.63;25.00;;;-0.50;45.00;;;;;;5049078;28;20461;-67
2022/01/27 05:28:40;;;;;;;79.57;24.23;;;-0.50;45.00;;;;;;5048451;28;20548;-67
2022/01/27 05:31:07;;;;;;;84.20;27.03;;;-0.50;45.10;;;;;;5048754;28;20480;-68
2022/01/27 05:33:34;;;;;;;77.50;26.63;;;-0.50;45.00;;;;;;5049773;28;20466;-68
2022/01/27 05:36:01;;;;;;;70.13;24.00;;;-0.50;44.90;;;;;;5048706;28;20842;-68
2022/01/27 05:38:28;;;;;;;72.93;24.57;;;-0.60;44.80;;;;;;5049499;28;20943;-68
2022/01/27 05:40:56;;;;;;;74.53;25.37;;;-0.60;44.90;;;;;;5049238;28;20465;-68
2022/01/27 05:43:23;;;;;;;79.53;28.10;;;-0.60;44.80;;;;;;5049524;28;20890;-68
2022/01/27 05:45:50;;;;;;;76.43;26.47;;;-0.60;44.80;;;;;;5048691;28;20556;-67
2022/01/27 05:48:17;;;;;;;72.90;24.83;;;-0.60;44.90;;;;;;5049097;28;20962;-69
2022/01/27 05:50:43;;;;;;;68.67;23.10;;;-0.60;44.90;;;;;;5048229;28;20465;-69
2022/01/27 05:53:10;;;;;;;72.87;24.13;;;-0.60;44.80;;;;;;5049144;28;20991;-68
2022/01/27 05:55:37;;;;;;;70.93;26.07;;;-0.60;44.60;;;;;;5044146;28;20481;-68
2022/01/27 05:58:05;;;;;;;73.80;25.07;;;-0.60;44.50;;;;;;5048349;28;20462;-68
2022/01/27 06:00:32;;;;;;;68.60;23.33;;;-0.60;44.60;;;;;;5048002;28;20483;-67
2022/01/27 06:02:59;;;;;;;74.73;24.40;;;-0.60;44.60;;;;;;5049278;28;20469;-68
2022/01/27 06:05:27;;;;;;;75.33;23.33;;;-0.60;44.50;;;;;;5041156;28;20481;-68
2022/01/27 06:07:53;;;;;;;72.57;24.03;;;-0.60;44.60;;;;;;5042539;28;20524;-67
2022/01/27 06:10:20;;;;;;;76.57;25.57;;;-0.60;44.50;;;;;;5029504;28;20473;-68
2022/01/27 06:12:53;;;;;;;73.93;24.67;;;-0.60;44.50;;;;;;5047723;28;21162;-68
2022/01/27 06:15:21;;;;;;;74.80;23.80;;;-0.60;44.50;;;;;;5040689;28;20846;-66
2022/01/27 06:17:48;;;;;;;74.47;25.27;;;-0.60;44.50;;;;;;5044624;28;21034;-68
2022/01/27 06:20:15;;;;;;;73.73;24.87;;;-0.60;44.50;;;;;;5044579;28;20661;-68
2022/01/27 06:22:42;;;;;;;75.83;25.87;;;-0.60;44.50;;;;;;5047690;28;20466;-68
2022/01/27 06:25:10;;;;;;;73.20;25.10;;;-0.60;44.60;;;;;;5049432;28;20820;-68
2022/01/27 06:27:37;;;;;;;73.07;25.23;;;-0.60;44.60;;;;;;5046819;28;20470;-67
2022/01/27 06:30:05;;;;;;;76.00;24.67;;;-0.60;45.30;;;;;;5048248;28;20456;-67
2022/01/27 06:32:34;;;;;;;79.50;25.67;;;-0.50;45.00;;;;;;5046838;28;20474;-67
2022/01/27 06:35:03;;;;;;;70.90;23.57;;;-0.50;45.20;;;;;;5048502;28;20484;-66
2022/01/27 06:37:30;;;;;;;74.40;26.10;;;-0.50;45.30;;;;;;5048425;28;20831;-66
2022/01/27 06:39:57;;;;;;;76.23;25.00;;;-0.50;45.10;;;;;;5048539;28;20490;-67
2022/01/27 06:42:24;;;;;;;69.37;23.40;;;-0.50;45.20;;;;;;5046636;28;21064;-68
2022/01/27 06:44:51;;;;;;;70.90;24.80;;;-0.50;45.10;;;;;;5048574;28;20481;-68
2022/01/27 06:47:18;;;;;;;69.20;23.13;;;-0.50;45.10;;;;;;5048944;28;20462;-67
2022/01/27 06:49:46;;;;;;;72.30;25.00;;;-0.50;45.20;;;;;;5048385;28;20565;-66
2022/01/27 06:52:13;;;;;;;84.33;26.40;;;-0.50;45.10;;;;;;5047458;28;20462;-68
2022/01/27 06:58:02;;;;;;;70.30;23.10;;;-0.50;45.20;;;;;;5028342;28;20802;-68
2022/01/27 07:00:29;;;;;;;71.20;23.50;;;-0.40;44.90;;;;;;5027355;28;20466;-67
2022/01/27 07:02:56;;;;;;;72.90;24.93;;;-0.40;45.00;;;;;;5047147;28;20469;-68
2022/01/27 07:05:24;;;;;;;68.13;22.83;;;-0.40;44.90;;;;;;5048415;28;20464;-69
2022/01/27 07:07:51;;;;;;;72.70;25.37;;;-0.40;44.90;;;;;;5048829;28;20970;-68
2022/01/27 07:10:17;;;;;;;66.97;22.83;;;-0.40;44.90;;;;;;5050901;28;20454;-68
2022/01/27 07:12:44;;;;;;;73.60;24.27;;;-0.30;44.90;;;;;;5047660;28;20466;-68
2022/01/27 07:15:12;;;;;;;75.17;26.10;;;-0.30;44.90;;;;;;5048102;28;20469;-68
2022/01/27 07:17:39;;;;;;;78.00;25.43;;;-0.20;44.90;;;;;;5048035;28;20462;-68
2022/01/27 07:20:07;;;;;;;76.73;24.80;;;-0.20;44.80;;;;;;5048191;28;20458;-68
2022/01/27 07:22:36;;;;;;;79.07;25.70;;;-0.10;44.70;;;;;;5048174;28;21028;-67
2022/01/27 07:25:05;;;;;;;74.27;24.50;;;-0.10;44.60;;;;;;5048244;28;20478;-69
2022/01/27 07:27:32;;;;;;;81.63;26.00;;;0.10;44.60;;;;;;5047766;28;20986;-69
2022/01/27 07:29:59;;;;;;;71.67;22.63;;;0.10;44.40;;;;;;5047732;28;20561;-68
2022/01/27 07:32:26;;;;;;;70.10;23.80;;;0.20;44.20;;;;;;5047161;28;21029;-67
2022/01/27 07:34:54;;;;;;;78.53;23.30;;;0.30;44.00;;;;;;5048029;28;20482;-68
2022/01/27 07:37:20;;;;;;;75.70;25.33;;;0.50;43.90;;;;;;5047828;28;21021;-67
2022/01/27 07:39:49;;;;;;;71.40;23.50;;;0.60;43.80;;;;;;5047755;28;20562;-68
2022/01/27 07:42:15;;;;;;;66.87;23.17;;;0.90;44.10;;;;;;5047524;28;20468;-69
2022/01/27 07:44:42;;;;;;;67.87;22.37;;;1.10;42.90;;;;;;5046685;28;20486;-68
2022/01/27 07:47:10;;;;;;;69.37;24.80;;;1.40;42.20;;;;;;5048208;28;20459;-68
2022/01/27 07:49:37;;;;;;;65.73;22.13;;;1.60;41.50;;;;;;5047685;28;20811;-68
2022/01/27 07:52:04;;;;;;;65.00;22.50;;;1.70;40.70;;;;;;5049388;28;20457;-68
2022/01/27 07:54:31;;;;;;;65.03;23.77;;;1.90;40.00;;;;;;5050929;28;20477;-68
2022/01/27 07:56:59;;;;;;;66.47;22.27;;;2.10;39.50;;;;;;5051302;28;20485;-68
2022/01/27 07:59:26;;;;;;;63.30;19.90;;;2.40;38.90;;;;;;5051549;28;20887;-68
2022/01/27 08:01:53;;;;;;;59.43;19.93;;;2.50;39.10;;;;;;5050581;28;21010;-68
2022/01/27 08:04:19;;;;;;;67.00;21.53;;;2.70;38.00;;;;;;5053109;28;20517;-68
2022/01/27 08:06:46;;;;;;;62.43;21.50;;;2.80;37.50;;;;;;5051552;28;20460;-67
2022/01/27 08:09:13;;;;;;;61.23;21.13;;;3.00;36.20;;;;;;5051769;28;20458;-68
2022/01/27 08:11:40;;;;;;;57.73;19.87;;;3.10;36.00;;;;;;5051407;28;20462;-68
2022/01/27 08:14:08;;;;;;;61.50;21.73;;;3.20;35.40;;;;;;5050662;28;20489;-68
2022/01/27 08:16:35;;;;;;;59.30;20.73;;;3.30;35.00;;;;;;5051316;28;20488;-67
2022/01/27 08:19:02;;;;;;;61.83;20.00;;;3.50;34.40;;;;;;5051310;28;20477;-68
2022/01/27 08:21:29;;;;;;;60.20;19.40;;;3.70;33.70;;;;;;5050399;28;20956;-68
2022/01/27 08:23:56;;;;;;;61.63;20.90;;;3.80;32.40;;;;;;5050149;28;20492;-68
2022/01/27 08:26:57;;;;;;;59.17;21.00;;;4.00;31.70;;;;;;5050837;28;20453;-68
2022/01/27 08:29:31;;;;;;;56.87;18.80;;;4.20;32.00;;;;;;5050702;28;20523;-68
2022/01/27 08:32:01;;;;;;;59.70;20.13;;;4.40;32.30;;;;;;5050439;28;20474;-69
2022/01/27 08:34:32;;;;;;;55.37;19.20;;;4.60;32.00;;;;;;5050218;28;20557;-69
2022/01/27 08:37:01;;;;;;;57.30;19.30;;;4.80;31.80;;;;;;5052010;28;20492;-68
2022/01/27 08:39:28;;;;;;;56.80;19.63;;;5.00;30.80;;;;;;5051183;28;20450;-68
2022/01/27 08:41:55;;;;;;;53.80;17.20;;;5.20;30.30;;;;;;5050650;28;20457;-68
2022/01/27 08:44:22;;;;;;;56.53;19.27;;;5.50;29.60;;;;;;5050729;28;20850;-68
2022/01/27 08:46:50;;;;;;;58.73;19.70;;;5.80;28.90;;;;;;5049898;28;20471;-68
2022/01/27 08:49:19;;;;;;;54.87;18.40;;;6.10;28.70;;;;;;5050485;28;20461;-68
2022/01/27 08:51:46;;;;;;;57.60;18.97;;;6.50;27.80;;;;;;5050428;28;20454;-68
2022/01/27 08:54:13;;;;;;;54.30;18.77;;;6.80;27.00;;;;;;5050865;28;20478;-68
2022/01/27 08:56:40;;;;;;;55.17;18.53;;;7.30;25.60;;;;;;5049569;28;20831;-67
2022/01/27 08:59:07;;;;;;;55.10;19.23;;;7.80;23.60;;;;;;5051031;28;20565;-68
2022/01/27 09:01:34;;;;;;;52.63;18.37;;;8.30;21.90;;;;;;5049564;28;20470;-69
2022/01/27 09:04:03;;;;;;;53.30;16.90;;;8.60;21.00;;;;;;5049295;28;20616;-67
2022/01/27 09:06:30;;;;;;;51.53;16.97;;;8.90;20.10;;;;;;5049209;28;20468;-68
2022/01/27 09:08:59;;;;;;;55.13;17.70;;;9.10;19.60;;;;;;5049934;28;20958;-68
2022/01/27 09:11:28;;;;;;;54.97;18.87;;;9.20;19.10;;;;;;5049764;28;20468;-68
2022/01/27 09:13:55;;;;;;;54.80;18.60;;;9.50;18.20;;;;;;5050121;28;20474;-69
2022/01/27 09:16:26;;;;;;;55.23;17.27;;;9.90;17.50;;;;;;5049177;28;20474;-68
2022/01/27 09:18:52;;;;;;;48.33;16.10;;;10.40;16.40;;;;;;5050777;28;20464;-69
2022/01/27 09:22:11;;;;;;;48.80;15.97;;;10.80;15.20;;;;;;5050355;28;20462;-68
2022/01/27 09:24:48;;;;;;;53.90;18.00;;;11.30;14.20;;;;;;5050404;28;20528;-68
2022/01/27 09:27:15;;;;;;;50.20;16.30;;;11.60;13.00;;;;;;5048461;28;21082;-68
2022/01/27 09:29:42;;;;;;;50.50;16.10;;;11.60;11.70;;;;;;5049672;28;20480;-68
2022/01/27 09:32:09;;;;;;;54.53;17.57;;;11.60;11.50;;;;;;5049291;28;20476;-68
2022/01/27 09:34:36;;;;;;;47.87;14.93;;;11.70;11.80;;;;;;5049855;28;20705;-69
2022/01/27 09:37:04;;;;;;;48.83;15.80;;;12.20;11.60;;;;;;5049236;28;21051;-69
2022/01/27 09:39:32;;;;;;;48.37;16.17;;;12.80;10.80;;;;;;5049774;28;20458;-69
2022/01/27 09:42:02;;;;;;;50.23;15.70;;;13.60;9.90;;;;;;5048991;28;20462;-69
2022/01/27 09:44:32;;;;;;;51.00;16.77;;;14.50;8.40;;;;;;5049428;28;20531;-68
2022/01/27 09:47:01;;;;;;;47.20;15.57;;;15.40;7.20;;;;;;5049080;28;20509;-69
2022/01/27 09:49:36;;;;;;;46.30;15.30;;;16.40;6.00;;;;;;5049518;28;20460;-69
2022/01/27 09:52:05;;;;;;;45.43;14.50;;;17.10;4.50;;;;;;5049312;28;20464;-69
2022/01/27 09:54:32;;;;;;;46.00;15.10;;;17.80;3.40;;;;;;5049364;28;20482;-68
2022/01/27 09:57:00;;;;;;;46.37;15.70;;;18.40;2.90;;;;;;5049746;28;20489;-69
2022/01/27 09:59:28;;;;;;;44.77;14.97;;;19.20;1.90;;;;;;5048648;28;20454;-69
2022/01/27 10:01:57;;;;;;;45.20;16.60;;;20.00;1.30;;;;;;5048737;28;20470;-68
2022/01/27 10:04:44;;;;;;;45.00;15.10;;;20.90;1.00;;;;;;5049790;28;20535;-70
2022/01/27 10:07:12;;;;;;;43.20;14.40;;;21.70;1.00;;;;;;5049605;28;20556;-68
2022/01/27 10:09:39;;;;;;;46.33;14.13;;;22.40;1.00;;;;;;5048267;28;20458;-69
2022/01/27 10:12:08;;;;;;;43.67;14.90;;;22.80;1.00;;;;;;5050023;28;20550;-70
2022/01/27 10:14:38;;;;;;;43.87;15.50;;;23.20;1.00;;;;;;5048830;28;20573;-70
2022/01/27 10:17:11;;;;;;;42.13;14.80;;;23.70;1.00;;;;;;5048706;28;20531;-68
2022/01/27 10:19:38;;;;;;;42.27;14.73;;;24.10;1.00;;;;;;5047588;28;20470;-71
2022/01/27 10:22:07;;;;;;;41.10;13.90;;;24.30;1.00;;;;;;5048731;28;20469;-69
2022/01/27 10:24:35;;;;;;;42.67;14.70;;;24.70;1.00;;;;;;5048526;28;20478;-70
2022/01/27 10:27:28;;;;;;;42.77;15.27;;;25.10;1.00;;;;;;5048908;28;21000;-68
2022/01/27 10:32:45;;;;;;;43.30;16.83;;;26.30;1.00;;;;;;5047392;28;20500;-69
2022/01/27 10:35:14;;;;;;;42.63;15.63;;;26.80;1.00;;;;;;5049381;28;20454;-69
2022/01/27 10:37:55;;;;;;;42.10;15.23;;;27.10;1.00;;;;;;5048783;28;21001;-69
2022/01/27 10:40:25;;;;;;;41.57;14.93;;;27.40;1.00;;;;;;5047853;28;20552;-70
2022/01/27 10:43:07;;;;;;;41.60;15.20;;;27.60;1.00;;;;;;5048422;28;20482;-69
2022/01/27 10:45:35;;;;;;;40.33;14.63;;;27.70;1.00;;;;;;5048473;28;20832;-70
2022/01/27 10:48:17;;;;;;;39.17;14.07;;;27.80;1.00;;;;;;5048294;28;20469;-69
2022/01/27 10:50:52;;;;;;;40.73;14.23;;;27.60;1.00;;;;;;5047852;28;20469;-69
2022/01/27 10:53:20;;;;;;;41.00;14.07;;;27.40;1.00;;;;;;5048106;28;21212;-69
2022/01/27 10:56:02;;;;;;;38.70;14.93;;;27.20;1.00;;;;;;5048243;28;20458;-69
2022/01/27 10:58:31;;;;;;;41.83;13.90;;;27.00;1.00;;;;;;5048372;28;20564;-68
2022/01/27 11:00:59;;;;;;;39.70;14.10;;;26.60;1.00;;;;;;5047164;28;20477;-69
2022/01/27 11:03:27;;;;;;;40.60;13.70;;;26.30;1.00;;;;;;5048416;28;20508;-69
2022/01/27 11:05:56;;;;;;;44.73;15.00;;;26.30;1.00;;;;;;5048615;28;20818;-70
2022/01/27 11:08:26;;;;;;;40.90;14.10;;;26.40;1.00;;;;;;5048000;28;20454;-71
2022/01/27 11:10:53;;;;;;;42.83;14.47;;;26.40;1.00;;;;;;5046878;28;20469;-68
2022/01/27 11:13:22;;;;;;;39.47;14.47;;;26.40;1.00;;;;;;5048060;28;20988;-68
2022/01/27 11:15:54;;;;;;;40.00;14.07;;;26.40;1.00;;;;;;5048308;28;21028;-68
2022/01/27 11:18:23;;;;;;;42.37;14.67;;;26.20;1.00;;;;;;5048566;28;20477;-71
2022/01/27 11:20:56;;;;;;;39.13;13.80;;;25.90;1.00;;;;;;5047108;28;21021;-70
2022/01/27 11:23:47;;;;;;;40.60;14.20;;;25.60;1.00;;;;;;5047846;28;21065;-70
2022/01/27 11:26:22;;;;;;;42.20;14.93;;;25.70;1.00;;;;;;5048988;28;20457;-69
2022/01/27 11:28:50;;;;;;;39.60;13.60;;;25.70;1.00;;;;;;5052230;28;20876;-70
2022/01/27 11:31:28;;;;;;;42.20;13.10;;;25.70;1.00;;;;;;5050624;28;20474;-70
2022/01/27 11:34:03;;;;;;;39.70;13.87;;;25.50;1.00;;;;;;5051924;28;20477;-68
2022/01/27 11:36:31;;;;;;;38.90;12.67;;;25.20;1.00;;;;;;5052462;28;20461;-70
2022/01/27 11:38:59;;;;;;;39.07;11.90;;;25.10;1.00;;;;;;5052155;28;20460;-68
2022/01/27 11:41:37;;;;;;;36.73;11.17;;;24.70;1.00;;;;;;5050856;28;20454;-69
2022/01/27 11:44:25;;;;;;;38.43;12.33;;;24.50;1.00;;;;;;5051520;28;20477;-70
2022/01/27 11:47:18;;;;;;;40.10;12.57;;;24.30;1.00;;;;;;5051958;28;20458;-70
2022/01/27 11:49:55;;;;;;;39.77;13.43;;;24.10;1.00;;;;;;5052123;28;20983;-68
2022/01/27 11:52:26;;;;;;;42.10;12.37;;;23.60;1.00;;;;;;5050357;28;20469;-69
2022/01/27 11:54:55;;;;;;;38.93;12.97;;;23.20;1.00;;;;;;5051565;28;20539;-69
2022/01/27 11:57:42;;;;;;;41.70;13.00;;;22.80;1.00;;;;;;5052068;28;20486;-69
2022/01/27 12:00:23;;;;;;;41.23;12.60;;;22.40;1.00;;;;;;5051340;28;20464;-68
2022/01/27 12:03:20;;;;;;;42.43;13.77;;;21.90;1.00;;;;;;5050617;28;20457;-71
2022/01/27 12:06:15;;;;;;;40.27;11.87;;;21.30;1.00;;;;;;5051766;28;20549;-68
2022/01/27 12:08:41;;;;;;;38.87;12.20;;;20.80;1.00;;;;;;5051097;28;20449;-69
2022/01/27 12:11:11;;;;;;;38.87;11.17;;;20.30;1.00;;;;;;5051261;28;20478;-68
2022/01/27 12:16:52;;;;;;;40.20;10.37;;;19.30;1.00;;;;;;5051189;28;20446;-70
2022/01/27 12:19:20;;;;;;;39.20;10.67;;;18.80;1.00;;;;;;5051343;28;20815;-68
2022/01/27 12:22:00;;;;;;;39.90;10.43;;;18.20;1.00;;;;;;5050780;28;20453;-68
2022/01/27 12:24:28;;;;;;;38.90;9.10;;;17.70;1.00;;;;;;5050267;28;20563;-69
2022/01/27 12:26:57;;;;;;;38.00;8.03;;;17.30;1.00;;;;;;5050886;28;20461;-69
2022/01/27 12:29:27;;;;;;;36.87;7.67;;;16.80;1.00;;;;;;5051387;28;20527;-69
2022/01/27 12:31:58;;;;;;;38.03;7.57;;;16.40;1.70;;;;;;5050587;28;20485;-70
2022/01/27 12:34:27;;;;;;;37.80;8.43;;;16.00;2.50;;;;;;5049970;28;20485;-68
2022/01/27 12:37:12;;;;;;;39.40;9.03;;;15.80;3.40;;;;;;5050562;28;20989;-68
2022/01/27 12:39:41;;;;;;;37.40;7.50;;;15.50;3.60;;;;;;5050585;28;20564;-69
2022/01/27 12:42:12;;;;;;;38.47;8.37;;;15.30;4.00;;;;;;5050598;28;20460;-69
2022/01/27 12:44:41;;;;;;;38.40;8.90;;;15.10;4.50;;;;;;5050163;28;20477;-69
2022/01/27 12:47:14;;;;;;;38.70;8.10;;;15.00;4.80;;;;;;5050638;28;20447;-69
2022/01/27 12:49:45;;;;;;;38.10;7.90;;;14.80;4.80;;;;;;5040290;28;20447;-69
2022/01/27 12:52:15;;;;;;;36.70;7.50;;;14.70;4.60;;;;;;5030465;28;20494;-69
2022/01/27 12:54:43;;;;;;;38.60;7.40;;;14.50;5.30;;;;;;5033952;28;20571;-68
2022/01/27 12:57:10;;;;;;;37.33;7.03;;;14.20;5.40;;;;;;5050307;28;21055;-69
2022/01/27 12:59:39;;;;;;;37.10;6.90;;;14.00;5.50;;;;;;5049991;28;20464;-69
2022/01/27 13:02:08;;;;;;;37.03;7.20;;;13.90;6.40;;;;;;5049092;28;20994;-69
2022/01/27 13:04:36;;;;;;;39.13;8.70;;;13.70;6.70;;;;;;5049688;28;20489;-69
2022/01/27 13:07:06;;;;;;;38.93;8.83;;;13.50;6.60;;;;;;5049995;28;20458;-69
2022/01/27 13:09:34;;;;;;;40.70;7.83;;;13.20;7.20;;;;;;5050764;28;20826;-68
2022/01/27 13:12:25;;;;;;;43.07;10.67;;;13.00;8.00;;;;;;5049534;28;20457;-70
2022/01/27 13:14:59;;;;;;;43.87;13.03;;;12.80;8.30;;;;;;5050000;28;20485;-69
2022/01/27 13:17:32;;;;;;;45.23;13.03;;;12.60;8.20;;;;;;5049933;28;20485;-69
2022/01/27 13:20:11;;;;;;;44.67;12.23;;;12.40;9.00;;;;;;5049965;28;20464;-69
2022/01/27 13:22:51;;;;;;;53.70;18.97;;;12.20;9.50;;;;;;5049823;28;20457;-69